Time;durP1;ratioP1;P1;durP2;ratioP2;P2;SDS_P1;SDS_P2;PMS_P1;PMS_P2;Temp;Humidity;BMP_temperature;BMP_pressure;BME280_temperature;BME280_humidity;BME280_pressure;Samples;Min_cycle;Max_cycle;Signal;HPM_P1;HPM_P2
2024/03/10 00:02:11;;;;;;;14.40;8.75;;;9.50;70.90;;;;;;5073217;28;20032;-68
2024/03/10 00:04:36;;;;;;;14.77;9.38;;;9.50;71.00;;;;;;5073648;28;20611;-64
2024/03/10 00:07:02;;;;;;;17.48;10.10;;;9.50;71.00;;;;;;5079820;28;20017;-66
2024/03/10 00:09:28;;;;;;;16.73;9.45;;;9.40;71.00;;;;;;5075377;28;20032;-67
2024/03/10 00:11:54;;;;;;;15.32;9.50;;;9.40;71.10;;;;;;5074598;28;20020;-65
2024/03/10 00:14:20;;;;;;;12.73;8.27;;;9.40;71.20;;;;;;5074759;28;20017;-67
2024/03/10 00:16:45;;;;;;;14.02;8.55;;;9.40;71.10;;;;;;5073181;28;20692;-67
2024/03/10 00:19:11;;;;;;;14.35;8.88;;;9.40;71.10;;;;;;5084159;28;20038;-65
2024/03/10 00:21:37;;;;;;;13.43;8.45;;;9.40;71.20;;;;;;5070087;28;20360;-66
2024/03/10 00:24:04;;;;;;;16.67;10.02;;;9.40;71.10;;;;;;5076331;28;20025;-67
2024/03/10 00:26:30;;;;;;;15.68;9.32;;;9.40;71.10;;;;;;5072432;28;20027;-67
2024/03/10 00:28:56;;;;;;;14.05;9.07;;;9.40;71.10;;;;;;5078412;28;20029;-64
2024/03/10 00:31:22;;;;;;;17.63;10.30;;;9.40;71.20;;;;;;5075295;28;20036;-66
2024/03/10 00:33:47;;;;;;;16.58;10.05;;;9.40;71.20;;;;;;5068036;28;20036;-65
2024/03/10 00:36:13;;;;;;;16.73;9.52;;;9.40;71.10;;;;;;5080462;28;20088;-65
2024/03/10 00:38:38;;;;;;;16.23;9.13;;;9.40;71.20;;;;;;5078254;28;20071;-66
2024/03/10 00:41:06;;;;;;;16.25;9.70;;;9.40;71.20;;;;;;5073921;28;20028;-68
2024/03/10 00:43:33;;;;;;;16.48;9.43;;;9.40;71.30;;;;;;5075103;28;20034;-68
2024/03/10 00:45:59;;;;;;;19.05;11.70;;;9.40;71.30;;;;;;5078678;28;20035;-67
2024/03/10 00:48:25;;;;;;;16.58;10.10;;;9.30;72.00;;;;;;5073674;28;20475;-68
2024/03/10 00:50:50;;;;;;;17.10;10.95;;;9.30;71.40;;;;;;5095964;28;20021;-67
2024/03/10 00:53:16;;;;;;;18.42;11.48;;;9.30;71.40;;;;;;5071814;28;20437;-66
2024/03/10 00:55:45;;;;;;;17.13;10.30;;;9.30;71.40;;;;;;5069807;28;20032;-66
2024/03/10 00:58:10;;;;;;;19.00;10.63;;;9.30;71.50;;;;;;5078147;28;20091;-66
2024/03/10 01:00:36;;;;;;;16.92;9.95;;;9.20;71.60;;;;;;5075310;28;20589;-65
2024/03/10 01:03:04;;;;;;;17.75;10.65;;;9.30;71.60;;;;;;5073068;28;20032;-67
2024/03/10 01:05:30;;;;;;;15.20;9.23;;;9.30;71.80;;;;;;5071992;28;20027;-64
2024/03/10 01:07:56;;;;;;;16.90;9.95;;;9.30;71.70;;;;;;5069231;28;20487;-66
2024/03/10 01:10:23;;;;;;;15.05;8.70;;;9.30;71.70;;;;;;5070074;28;20394;-65
2024/03/10 01:12:48;;;;;;;14.43;9.07;;;9.30;71.60;;;;;;5082215;28;20031;-64
2024/03/10 01:15:14;;;;;;;15.15;9.48;;;9.30;71.70;;;;;;5078435;28;20024;-66
2024/03/10 01:17:39;;;;;;;16.85;10.23;;;9.30;71.70;;;;;;5070408;28;20028;-70
2024/03/10 01:20:06;;;;;;;16.50;9.55;;;9.20;71.80;;;;;;5075782;28;20038;-65
2024/03/10 01:22:32;;;;;;;15.02;9.13;;;9.30;71.90;;;;;;5078828;28;20021;-65
2024/03/10 01:24:57;;;;;;;17.08;8.77;;;9.30;71.80;;;;;;5078565;28;20047;-66
2024/03/10 01:27:23;;;;;;;15.85;9.25;;;9.30;71.80;;;;;;5076491;28;20032;-67
2024/03/10 01:29:49;;;;;;;12.20;7.45;;;9.30;71.90;;;;;;5072297;28;20020;-65
2024/03/10 01:32:15;;;;;;;14.95;8.88;;;9.30;71.90;;;;;;5073516;28;20544;-65
2024/03/10 01:34:40;;;;;;;14.25;8.57;;;9.30;71.80;;;;;;5074614;28;20028;-65
2024/03/10 01:37:06;;;;;;;13.38;8.13;;;9.30;71.80;;;;;;5080292;28;20027;-66
2024/03/10 01:39:31;;;;;;;11.63;7.63;;;9.30;71.80;;;;;;5076318;28;20024;-65
2024/03/10 01:41:57;;;;;;;15.60;9.18;;;9.30;71.80;;;;;;5080102;28;20091;-63
2024/03/10 01:44:23;;;;;;;13.27;8.27;;;9.30;71.80;;;;;;5075176;28;20044;-65
2024/03/10 01:46:50;;;;;;;10.57;6.50;;;9.30;71.80;;;;;;5071152;28;20470;-66
2024/03/10 01:49:17;;;;;;;13.82;8.30;;;9.40;71.80;;;;;;5068297;28;20392;-66
2024/03/10 01:51:43;;;;;;;11.73;7.03;;;9.40;71.70;;;;;;5068575;28;20019;-71
2024/03/10 01:54:11;;;;;;;11.68;7.13;;;9.40;71.80;;;;;;5076122;28;20482;-65
2024/03/10 01:56:39;;;;;;;11.95;7.32;;;9.40;71.80;;;;;;5079203;28;20020;-64
2024/03/10 01:59:06;;;;;;;13.50;7.95;;;9.40;71.70;;;;;;5079982;28;20509;-64
2024/03/10 02:01:35;;;;;;;14.48;7.85;;;9.30;71.70;;;;;;5077319;28;20395;-65
2024/03/10 02:04:01;;;;;;;12.48;7.38;;;9.30;71.80;;;;;;5076559;28;20492;-65
2024/03/10 02:06:27;;;;;;;10.45;6.70;;;9.40;71.90;;;;;;5069548;28;20016;-64
2024/03/10 02:08:54;;;;;;;9.82;6.70;;;9.40;71.80;;;;;;5070392;28;20494;-64
2024/03/10 02:11:20;;;;;;;9.15;5.63;;;9.40;71.70;;;;;;5077965;28;20072;-65
2024/03/10 02:13:47;;;;;;;11.27;6.80;;;9.40;71.70;;;;;;5070971;28;20021;-65
2024/03/10 02:16:13;;;;;;;12.73;7.63;;;9.40;71.60;;;;;;5075198;28;20043;-66
2024/03/10 02:18:39;;;;;;;10.85;7.13;;;9.40;72.30;;;;;;5073742;28;20119;-65
2024/03/10 02:21:08;;;;;;;15.02;8.43;;;9.40;71.70;;;;;;5070694;28;20111;-69
2024/03/10 02:24:03;;;;;;;13.98;8.32;;;9.40;71.80;;;;;;5079691;28;20367;-64
2024/03/10 02:26:32;;;;;;;13.48;8.50;;;9.30;71.90;;;;;;5062383;28;20158;-68
2024/03/10 02:29:18;;;;;;;11.73;7.30;;;9.30;72.00;;;;;;5072293;28;20161;-66
2024/03/10 02:48:14;;;;;;;18.92;10.90;;;9.20;72.90;;;;;;5071016;28;20035;-65
2024/03/10 02:50:40;;;;;;;17.90;10.63;;;9.10;72.50;;;;;;5069573;28;20371;-65
2024/03/10 02:53:06;;;;;;;16.75;9.82;;;9.00;72.60;;;;;;5070732;28;20024;-64
2024/03/10 02:55:34;;;;;;;15.85;9.38;;;9.00;72.80;;;;;;5069525;28;20028;-64
2024/03/10 02:58:01;;;;;;;15.02;8.75;;;9.00;72.70;;;;;;5066271;28;20028;-67
2024/03/10 03:00:28;;;;;;;15.55;9.15;;;9.00;72.70;;;;;;5068821;28;20066;-65
2024/03/10 03:02:55;;;;;;;11.93;7.47;;;9.00;72.70;;;;;;5070357;28;20032;-64
2024/03/10 03:05:21;;;;;;;12.02;7.30;;;9.10;72.70;;;;;;5070489;28;20016;-68
2024/03/10 03:07:48;;;;;;;14.48;9.20;;;9.10;72.60;;;;;;5073630;28;20021;-67
2024/03/10 03:10:14;;;;;;;18.85;10.77;;;9.10;72.50;;;;;;5082766;28;20047;-66
2024/03/10 03:12:42;;;;;;;14.20;8.57;;;9.10;72.70;;;;;;5078586;28;20027;-64
2024/03/10 03:15:09;;;;;;;13.70;8.57;;;9.10;72.70;;;;;;5078382;28;20024;-67
2024/03/10 03:17:35;;;;;;;17.73;10.93;;;9.10;72.60;;;;;;5071292;28;20411;-65
2024/03/10 03:20:16;;;;;;;18.65;10.60;;;9.00;72.60;;;;;;5078235;28;20463;-68
2024/03/10 03:22:46;;;;;;;19.30;11.70;;;9.00;72.90;;;;;;5072861;28;20054;-65
2024/03/10 03:25:13;;;;;;;17.10;10.25;;;8.90;72.90;;;;;;5079140;28;20097;-65
2024/03/10 03:27:39;;;;;;;17.65;10.23;;;8.90;72.90;;;;;;5073592;28;20029;-65
2024/03/10 03:30:08;;;;;;;15.98;9.60;;;8.90;72.90;;;;;;5071958;28;20096;-69
2024/03/10 03:32:34;;;;;;;16.45;10.32;;;8.90;72.90;;;;;;5077260;28;20028;-67
2024/03/10 03:35:01;;;;;;;14.93;9.60;;;8.90;72.80;;;;;;5078955;28;20025;-65
2024/03/10 03:37:26;;;;;;;13.77;7.88;;;8.90;72.90;;;;;;5081581;28;20027;-65
2024/03/10 03:39:53;;;;;;;13.60;8.40;;;9.00;72.90;;;;;;5070238;28;20032;-65
2024/03/10 03:42:19;;;;;;;18.40;11.35;;;9.00;72.70;;;;;;5073702;28;20020;-65
2024/03/10 03:44:44;;;;;;;18.30;11.00;;;8.90;72.70;;;;;;5070752;28;20025;-67
2024/03/10 03:47:11;;;;;;;19.05;11.65;;;8.90;72.90;;;;;;5078386;28;20012;-66
2024/03/10 03:49:37;;;;;;;18.33;11.23;;;8.90;73.00;;;;;;5070536;28;20028;-65
2024/03/10 03:52:06;;;;;;;15.07;8.95;;;8.90;73.00;;;;;;5077780;28;20081;-65
2024/03/10 03:54:32;;;;;;;13.90;8.77;;;8.90;73.00;;;;;;5074706;28;20079;-65
2024/03/10 03:56:58;;;;;;;15.10;8.00;;;8.90;73.00;;;;;;5070451;28;20483;-67
2024/03/10 03:59:24;;;;;;;15.85;9.20;;;9.00;73.00;;;;;;5072574;28;20070;-65
2024/03/10 04:01:50;;;;;;;16.98;9.70;;;9.00;72.80;;;;;;5075622;28;20025;-64
2024/03/10 04:04:16;;;;;;;16.92;10.20;;;8.90;72.90;;;;;;5080612;28;20036;-67
2024/03/10 04:06:43;;;;;;;15.23;8.98;;;8.90;73.00;;;;;;5084689;28;20032;-66
2024/03/10 04:09:09;;;;;;;21.42;12.40;;;8.90;73.00;;;;;;5073604;28;20021;-65
2024/03/10 04:11:35;;;;;;;19.80;11.50;;;8.70;73.20;;;;;;5073276;28;20556;-65
2024/03/10 04:14:00;;;;;;;19.75;11.82;;;8.60;73.50;;;;;;5070540;28;20164;-66
2024/03/10 04:16:26;;;;;;;17.90;11.75;;;8.50;73.80;;;;;;5071101;28;20165;-65
2024/03/10 04:18:51;;;;;;;17.50;10.88;;;8.50;74.00;;;;;;5070607;28;20044;-64
2024/03/10 04:21:17;;;;;;;17.10;10.73;;;8.40;74.10;;;;;;5071405;28;20029;-65
2024/03/10 04:23:43;;;;;;;19.27;11.65;;;8.40;74.10;;;;;;5083564;28;20039;-65
2024/03/10 04:26:11;;;;;;;17.55;10.65;;;8.40;74.30;;;;;;5073143;28;20031;-67
2024/03/10 04:28:36;;;;;;;16.95;9.50;;;8.40;74.20;;;;;;5072633;28;20159;-67
2024/03/10 04:31:02;;;;;;;17.15;10.57;;;8.40;74.20;;;;;;5072852;28;20530;-66
2024/03/10 04:33:28;;;;;;;19.10;11.13;;;8.40;74.30;;;;;;5073270;28;20025;-66
2024/03/10 04:35:53;;;;;;;18.38;10.85;;;8.30;74.20;;;;;;5074985;28;20398;-66
2024/03/10 04:38:19;;;;;;;16.23;9.77;;;8.30;74.40;;;;;;5073287;28;20020;-66
2024/03/10 04:40:45;;;;;;;18.70;10.63;;;8.30;74.50;;;;;;5072134;28;20033;-64
2024/03/10 04:43:10;;;;;;;16.17;9.80;;;8.30;74.50;;;;;;5087160;28;20030;-64
2024/03/10 04:45:36;;;;;;;14.73;8.98;;;8.30;74.50;;;;;;5079391;28;20097;-66
2024/03/10 04:48:02;;;;;;;14.80;8.68;;;8.20;74.40;;;;;;5069931;28;20445;-67
2024/03/10 04:50:29;;;;;;;15.80;9.65;;;8.30;74.30;;;;;;5071423;28;20101;-67
2024/03/10 04:52:57;;;;;;;16.55;10.10;;;8.20;74.40;;;;;;5073710;28;20020;-65
2024/03/10 04:55:23;;;;;;;15.15;8.85;;;8.20;74.30;;;;;;5071248;28;20634;-65
2024/03/10 04:57:49;;;;;;;15.80;9.60;;;8.20;74.40;;;;;;5075084;28;20062;-65
2024/03/10 05:00:18;;;;;;;17.60;10.73;;;8.20;74.40;;;;;;5072885;28;20124;-66
2024/03/10 05:02:46;;;;;;;15.93;9.98;;;8.10;74.60;;;;;;5072726;28;20024;-66
2024/03/10 05:05:12;;;;;;;15.73;9.77;;;8.10;74.60;;;;;;5073431;28;20042;-65
2024/03/10 05:07:39;;;;;;;14.05;8.55;;;8.10;74.50;;;;;;5077937;28;20114;-64
2024/03/10 05:10:05;;;;;;;15.15;9.20;;;8.20;74.50;;;;;;5074110;28;20023;-66
2024/03/10 05:12:31;;;;;;;15.70;9.88;;;8.10;74.40;;;;;;5063691;28;21924;-64
2024/03/10 05:14:56;;;;;;;18.95;11.70;;;8.10;74.50;;;;;;5066937;28;20017;-67
2024/03/10 05:17:22;;;;;;;17.05;9.95;;;8.00;74.60;;;;;;5069128;28;20036;-64
2024/03/10 05:19:47;;;;;;;16.83;10.50;;;8.10;74.70;;;;;;5068027;28;20032;-65
2024/03/10 05:22:13;;;;;;;16.42;10.13;;;8.00;74.60;;;;;;5066814;28;20024;-67
2024/03/10 05:24:42;;;;;;;14.80;9.02;;;8.00;74.60;;;;;;5080076;28;20391;-66
2024/03/10 05:27:09;;;;;;;14.35;8.27;;;8.00;74.70;;;;;;5068466;28;20028;-64
2024/03/10 05:29:36;;;;;;;19.90;11.30;;;7.90;74.80;;;;;;5078893;28;20016;-65
2024/03/10 05:32:03;;;;;;;17.98;10.75;;;7.90;75.00;;;;;;5076625;28;20021;-67
2024/03/10 05:34:28;;;;;;;19.45;10.95;;;7.90;75.10;;;;;;5072444;28;20148;-66
2024/03/10 05:36:54;;;;;;;20.17;12.00;;;7.90;75.20;;;;;;5081118;28;20064;-68
2024/03/10 05:39:19;;;;;;;19.08;10.73;;;7.80;75.30;;;;;;5085160;28;20036;-65
2024/03/10 05:41:45;;;;;;;17.60;10.18;;;7.80;75.50;;;;;;5076095;28;20041;-65
2024/03/10 05:44:14;;;;;;;18.45;10.98;;;7.80;75.50;;;;;;5065739;28;20435;-66
2024/03/10 05:46:39;;;;;;;20.13;12.27;;;7.80;75.70;;;;;;5068995;28;20027;-66
2024/03/10 05:49:05;;;;;;;18.33;10.60;;;7.70;75.70;;;;;;5069323;28;20029;-67
2024/03/10 05:51:31;;;;;;;17.77;10.48;;;7.80;75.70;;;;;;5073484;28;20043;-65
2024/03/10 05:53:57;;;;;;;16.25;9.25;;;7.80;75.50;;;;;;5068234;28;20029;-66
2024/03/10 05:56:23;;;;;;;17.80;9.35;;;7.80;75.40;;;;;;5068215;28;20024;-68
2024/03/10 05:58:49;;;;;;;17.38;9.90;;;7.80;75.40;;;;;;5072831;28;20021;-68
2024/03/10 06:01:21;;;;;;;17.50;10.15;;;7.80;75.30;;;;;;5069426;28;20459;-66
2024/03/10 06:03:48;;;;;;;16.90;10.32;;;7.80;75.30;;;;;;5069109;28;20080;-66
2024/03/10 06:06:13;;;;;;;16.13;9.38;;;7.80;75.40;;;;;;5078009;28;20062;-64
2024/03/10 06:08:39;;;;;;;17.90;10.68;;;7.80;75.40;;;;;;5068189;28;20604;-66
2024/03/10 06:11:04;;;;;;;19.75;11.30;;;7.80;75.50;;;;;;5070986;28;20028;-65
2024/03/10 06:13:30;;;;;;;19.83;11.00;;;7.80;75.60;;;;;;5078165;28;20454;-65
2024/03/10 06:15:56;;;;;;;18.80;10.38;;;7.70;75.70;;;;;;5073723;28;20012;-67
2024/03/10 06:18:23;;;;;;;16.85;9.40;;;7.70;75.60;;;;;;5066143;28;20066;-64
2024/03/10 06:26:21;;;;;;;14.27;8.30;;;7.80;75.40;;;;;;5067076;28;20082;-67
2024/03/10 06:28:47;;;;;;;13.38;7.97;;;7.90;75.40;;;;;;5072508;28;20032;-68
2024/03/10 06:31:13;;;;;;;13.38;8.07;;;7.90;75.30;;;;;;5069575;28;20040;-66
2024/03/10 06:33:38;;;;;;;15.00;8.80;;;7.90;75.20;;;;;;5076290;28;20132;-66
2024/03/10 06:36:08;;;;;;;18.85;10.18;;;7.90;75.10;;;;;;5076861;28;20025;-65
2024/03/10 06:38:38;;;;;;;16.13;9.30;;;7.90;75.10;;;;;;5069063;28;20036;-66
2024/03/10 06:41:06;;;;;;;16.48;9.50;;;7.90;75.20;;;;;;5067719;28;21601;-65
2024/03/10 06:43:35;;;;;;;19.13;11.43;;;7.90;75.20;;;;;;5065975;28;20123;-65
2024/03/10 06:46:01;;;;;;;18.02;10.25;;;7.90;75.20;;;;;;5067460;28;20100;-65
2024/03/10 06:48:26;;;;;;;16.17;9.52;;;8.00;75.20;;;;;;5073652;28;20091;-65
2024/03/10 06:50:52;;;;;;;18.95;11.60;;;8.00;75.10;;;;;;5070212;28;20530;-65
2024/03/10 06:53:18;;;;;;;19.35;10.82;;;8.00;75.00;;;;;;5071787;28;20028;-66
2024/03/10 06:55:44;;;;;;;16.27;9.57;;;8.10;75.00;;;;;;5072106;28;20074;-66
2024/03/10 06:58:11;;;;;;;15.38;9.23;;;8.20;75.00;;;;;;5075103;28;20530;-66
2024/03/10 07:00:37;;;;;;;18.10;10.20;;;8.20;74.70;;;;;;5072298;28;20024;-65
2024/03/10 07:03:04;;;;;;;17.50;10.18;;;8.30;74.60;;;;;;5068566;28;20028;-66
2024/03/10 07:05:30;;;;;;;22.65;12.82;;;8.30;74.50;;;;;;5067793;28;20032;-69
2024/03/10 07:07:56;;;;;;;20.85;11.65;;;8.20;74.60;;;;;;5061200;28;20025;-68
2024/03/10 07:10:22;;;;;;;22.40;11.88;;;8.20;74.70;;;;;;5066719;28;20039;-68
2024/03/10 07:12:48;;;;;;;20.58;12.15;;;8.10;74.80;;;;;;5073318;28;20497;-64
2024/03/10 07:15:15;;;;;;;17.15;9.80;;;8.10;74.90;;;;;;5067900;28;20368;-65
2024/03/10 07:17:40;;;;;;;20.70;11.90;;;8.10;74.90;;;;;;5064959;28;20036;-68
2024/03/10 07:20:07;;;;;;;18.90;11.30;;;8.20;74.80;;;;;;5068342;28;20645;-68
2024/03/10 07:22:37;;;;;;;17.75;11.00;;;8.20;74.70;;;;;;5065911;28;20115;-67
2024/03/10 07:25:08;;;;;;;18.30;10.50;;;8.30;75.30;;;;;;5066787;28;20076;-71
2024/03/10 07:27:34;;;;;;;15.45;9.35;;;8.40;74.50;;;;;;5068379;28;20128;-68
2024/03/10 07:29:59;;;;;;;17.20;10.43;;;8.40;74.30;;;;;;5065759;28;20107;-67
2024/03/10 07:32:26;;;;;;;17.05;10.27;;;8.50;74.20;;;;;;5065726;28;20021;-67
2024/03/10 07:34:52;;;;;;;19.38;10.50;;;8.50;74.10;;;;;;5065016;28;20479;-70
2024/03/10 07:37:18;;;;;;;18.50;10.55;;;8.60;74.10;;;;;;5067080;28;20031;-67
2024/03/10 07:39:44;;;;;;;20.33;11.32;;;8.60;73.90;;;;;;5070407;28;20020;-66
2024/03/10 07:42:10;;;;;;;16.50;10.15;;;8.70;73.90;;;;;;5062589;28;20028;-66
2024/03/10 07:44:35;;;;;;;19.30;10.55;;;8.70;73.70;;;;;;5063443;28;20035;-66
2024/03/10 07:47:04;;;;;;;20.42;12.40;;;8.70;73.60;;;;;;5062835;28;20039;-67
2024/03/10 07:49:31;;;;;;;19.83;11.38;;;8.80;73.70;;;;;;5072274;28;20016;-66
2024/03/10 07:51:56;;;;;;;19.27;11.55;;;8.80;73.60;;;;;;5068657;28;20470;-70
2024/03/10 07:54:22;;;;;;;21.27;12.35;;;8.90;73.50;;;;;;5071049;28;20024;-66
2024/03/10 07:56:48;;;;;;;19.48;11.75;;;8.90;73.40;;;;;;5071190;28;20069;-68
2024/03/10 07:59:13;;;;;;;20.77;12.38;;;9.00;73.20;;;;;;5068966;28;20032;-69
2024/03/10 08:01:39;;;;;;;19.98;11.38;;;9.10;73.10;;;;;;5066007;28;20514;-67
2024/03/10 08:04:05;;;;;;;17.58;11.43;;;9.20;73.00;;;;;;5069324;28;20126;-70
2024/03/10 08:06:31;;;;;;;21.08;12.25;;;9.30;72.70;;;;;;5067634;28;20036;-68
2024/03/10 08:08:58;;;;;;;17.60;10.02;;;9.40;72.40;;;;;;5068836;28;20024;-65
2024/03/10 08:11:23;;;;;;;19.33;11.50;;;9.50;72.40;;;;;;5069837;28;20021;-67
2024/03/10 08:13:49;;;;;;;17.88;10.88;;;9.60;72.10;;;;;;5069556;28;20044;-65
2024/03/10 08:16:15;;;;;;;16.58;9.70;;;9.70;71.80;;;;;;5070993;28;20538;-65
2024/03/10 08:18:41;;;;;;;16.63;10.20;;;9.80;71.80;;;;;;5069325;28;20113;-68
2024/03/10 08:21:07;;;;;;;17.30;10.95;;;9.80;71.50;;;;;;5071310;28;20397;-65
2024/03/10 08:23:33;;;;;;;16.67;10.30;;;9.90;71.20;;;;;;5076097;28;20438;-65
2024/03/10 08:26:00;;;;;;;16.67;9.65;;;9.90;71.20;;;;;;5070826;28;20056;-65
2024/03/10 08:28:26;;;;;;;18.27;10.52;;;10.00;71.20;;;;;;5069765;28;20085;-69
2024/03/10 08:30:53;;;;;;;21.13;12.30;;;10.00;71.00;;;;;;5072433;28;20017;-67
2024/03/10 08:33:18;;;;;;;20.20;12.18;;;9.90;70.60;;;;;;5074047;28;20027;-68
2024/03/10 08:35:46;;;;;;;17.25;10.75;;;10.00;70.70;;;;;;5074311;28;20036;-67
2024/03/10 08:38:12;;;;;;;18.40;11.00;;;10.10;70.70;;;;;;5069916;28;20135;-66
2024/03/10 08:40:38;;;;;;;17.90;11.32;;;10.00;70.70;;;;;;5071132;28;20491;-66
2024/03/10 08:43:04;;;;;;;21.58;12.40;;;10.00;70.50;;;;;;5070290;28;20025;-68
2024/03/10 08:45:29;;;;;;;18.95;11.73;;;10.00;70.60;;;;;;5068641;28;20039;-68
2024/03/10 08:47:55;;;;;;;18.45;10.65;;;9.90;71.20;;;;;;5068878;28;20028;-66
2024/03/10 08:50:21;;;;;;;16.25;9.93;;;10.00;70.70;;;;;;5071547;28;20851;-66
2024/03/10 08:52:47;;;;;;;17.48;11.10;;;10.00;70.70;;;;;;5074862;28;20474;-64
2024/03/10 08:55:15;;;;;;;17.17;10.55;;;10.00;70.50;;;;;;5071892;28;20025;-64
2024/03/10 08:57:41;;;;;;;17.95;11.30;;;10.10;70.60;;;;;;5068927;28;20028;-65
2024/03/10 09:00:11;;;;;;;15.30;8.90;;;10.10;70.40;;;;;;5069284;28;20070;-66
2024/03/10 09:02:38;;;;;;;14.02;8.70;;;10.20;70.60;;;;;;5072218;28;20156;-64
2024/03/10 09:05:07;;;;;;;16.15;9.20;;;10.40;70.30;;;;;;5068592;28;20040;-67
2024/03/10 09:07:33;;;;;;;15.43;10.40;;;10.40;70.30;;;;;;5073890;28;20047;-65
2024/03/10 09:09:59;;;;;;;18.00;10.52;;;10.50;69.80;;;;;;5075760;28;20020;-66
2024/03/10 09:12:24;;;;;;;15.98;10.10;;;10.50;69.70;;;;;;5070539;28;20383;-65
2024/03/10 09:14:51;;;;;;;14.73;9.10;;;10.60;69.40;;;;;;5067505;28;20025;-68
2024/03/10 09:17:17;;;;;;;19.42;10.43;;;10.80;69.60;;;;;;5068277;28;20017;-66
2024/03/10 09:19:42;;;;;;;17.02;10.75;;;10.90;69.10;;;;;;5069904;28;20055;-69
2024/03/10 09:22:10;;;;;;;18.48;11.10;;;10.90;68.70;;;;;;5066495;28;20028;-64
2024/03/10 09:24:36;;;;;;;17.63;10.00;;;10.90;68.80;;;;;;5068421;28;20532;-65
2024/03/10 09:27:03;;;;;;;19.27;11.38;;;10.90;68.30;;;;;;5072511;28;20109;-65
2024/03/10 09:29:29;;;;;;;18.17;10.90;;;10.90;68.30;;;;;;5071988;28;20021;-65
2024/03/10 09:31:55;;;;;;;14.77;9.35;;;10.90;68.10;;;;;;5071938;28;20016;-67
2024/03/10 09:34:25;;;;;;;18.20;10.10;;;11.00;68.40;;;;;;5065397;28;20383;-67
2024/03/10 09:36:51;;;;;;;18.55;11.02;;;11.00;68.30;;;;;;5067399;28;20216;-65
2024/03/10 09:39:17;;;;;;;17.33;11.32;;;11.10;68.20;;;;;;5067822;28;20615;-68
2024/03/10 09:41:43;;;;;;;17.58;10.88;;;11.10;68.00;;;;;;5067738;28;20397;-65
2024/03/10 09:44:17;;;;;;;14.52;8.85;;;11.20;68.20;;;;;;5069785;28;20111;-65
2024/03/10 09:46:44;;;;;;;17.27;10.35;;;11.30;68.20;;;;;;5072028;28;20081;-66
2024/03/10 09:49:16;;;;;;;17.13;10.32;;;11.30;67.90;;;;;;5067233;28;20055;-69
2024/03/10 09:51:49;;;;;;;18.63;11.55;;;11.40;67.90;;;;;;5069598;28;20056;-65
2024/03/10 09:54:15;;;;;;;17.73;11.20;;;11.40;67.50;;;;;;5061949;28;20052;-65
2024/03/10 09:56:41;;;;;;;18.65;12.07;;;11.40;67.70;;;;;;5070260;28;20055;-67
2024/03/10 09:59:14;;;;;;;15.43;9.43;;;11.40;67.40;;;;;;5066737;28;20060;-65
2024/03/10 10:01:43;;;;;;;15.45;9.82;;;11.40;67.80;;;;;;5064181;28;20080;-66
2024/03/10 10:04:11;;;;;;;17.00;9.93;;;11.50;67.80;;;;;;5066569;28;20031;-69
2024/03/10 10:06:40;;;;;;;18.77;11.15;;;11.50;67.70;;;;;;5064853;28;20540;-64
2024/03/10 10:09:10;;;;;;;16.90;10.32;;;11.50;67.50;;;;;;5069402;28;20024;-65
2024/03/10 10:11:37;;;;;;;16.48;10.18;;;11.50;67.60;;;;;;5069522;28;20020;-66
2024/03/10 10:14:16;;;;;;;16.70;10.20;;;11.60;67.70;;;;;;5070111;28;20013;-64
2024/03/10 10:16:55;;;;;;;15.40;9.77;;;11.60;67.40;;;;;;5068159;28;20065;-65
2024/03/10 10:19:22;;;;;;;16.35;9.88;;;11.80;67.50;;;;;;5071925;28;20384;-69
2024/03/10 10:21:48;;;;;;;13.85;8.75;;;11.70;67.60;;;;;;5065893;28;20387;-67
2024/03/10 10:24:15;;;;;;;14.32;8.85;;;11.90;67.60;;;;;;5069997;28;20028;-66
2024/03/10 10:26:41;;;;;;;15.75;9.40;;;12.00;67.60;;;;;;5065974;28;20033;-66
2024/03/10 10:29:09;;;;;;;19.63;12.15;;;12.00;67.30;;;;;;5071361;28;20065;-66
2024/03/10 10:31:37;;;;;;;17.40;11.10;;;11.90;66.80;;;;;;5069094;28;20048;-65
2024/03/10 10:34:05;;;;;;;17.30;10.75;;;11.90;67.20;;;;;;5070038;28;20070;-66
2024/03/10 10:36:34;;;;;;;16.23;10.43;;;11.90;67.10;;;;;;5066543;28;20501;-66
2024/03/10 10:39:01;;;;;;;18.40;11.10;;;11.80;66.90;;;;;;5065475;28;20115;-67
2024/03/10 10:41:26;;;;;;;18.15;11.25;;;11.80;67.10;;;;;;5060968;28;20376;-67
2024/03/10 10:43:53;;;;;;;18.25;11.52;;;11.90;67.20;;;;;;5071738;28;20043;-68
2024/03/10 10:46:18;;;;;;;18.08;11.75;;;11.80;66.60;;;;;;5065616;28;20024;-69
2024/03/10 10:48:46;;;;;;;20.42;12.70;;;11.80;66.70;;;;;;5066877;28;20035;-67
2024/03/10 10:51:14;;;;;;;21.52;12.57;;;11.80;66.50;;;;;;5068339;28;20150;-65
2024/03/10 10:53:41;;;;;;;18.88;12.23;;;11.80;66.20;;;;;;5071551;28;20524;-67
2024/03/10 10:56:14;;;;;;;21.05;13.23;;;11.80;66.20;;;;;;5071812;28;20118;-66
2024/03/10 10:58:40;;;;;;;19.40;11.98;;;11.80;66.20;;;;;;5069501;28;20111;-66
2024/03/10 11:01:07;;;;;;;17.98;11.38;;;11.90;66.00;;;;;;5067995;28;20021;-66
2024/03/10 11:03:36;;;;;;;19.17;11.48;;;11.90;65.90;;;;;;5068752;28;20032;-66
2024/03/10 11:06:02;;;;;;;17.17;10.45;;;12.00;66.00;;;;;;5064448;28;20035;-66
2024/03/10 11:08:41;;;;;;;13.43;8.93;;;12.00;66.00;;;;;;5071035;28;20540;-67
2024/03/10 11:11:08;;;;;;;18.23;10.73;;;12.10;66.00;;;;;;5060158;28;20031;-67
2024/03/10 11:13:38;;;;;;;16.95;10.43;;;12.20;65.80;;;;;;5065686;28;20017;-67
2024/03/10 11:16:23;;;;;;;15.05;9.82;;;12.30;65.50;;;;;;5067298;28;20031;-65
2024/03/10 11:18:49;;;;;;;17.00;11.13;;;12.40;65.60;;;;;;5065967;28;20117;-68
2024/03/10 11:21:19;;;;;;;19.73;11.65;;;12.50;65.20;;;;;;5066148;28;20008;-68
2024/03/10 11:23:58;;;;;;;15.50;10.50;;;12.50;64.80;;;;;;5064708;28;20375;-66
2024/03/10 11:26:25;;;;;;;16.10;9.90;;;12.70;64.70;;;;;;5073645;28;20039;-66
2024/03/10 11:29:00;;;;;;;14.70;10.32;;;12.70;64.70;;;;;;5069380;28;20021;-69
2024/03/10 11:31:26;;;;;;;16.77;9.90;;;12.90;64.50;;;;;;5072133;28;20024;-68
2024/03/10 11:33:58;;;;;;;18.17;10.27;;;13.00;64.40;;;;;;5071707;28;20390;-66
2024/03/10 11:36:25;;;;;;;13.80;8.38;;;13.00;64.40;;;;;;5075377;28;20095;-66
2024/03/10 11:38:51;;;;;;;17.98;10.50;;;13.10;64.50;;;;;;5077200;28;20031;-65
2024/03/10 11:41:22;;;;;;;16.88;11.23;;;13.30;64.30;;;;;;5069595;28;20149;-68
2024/03/10 11:43:48;;;;;;;15.10;9.30;;;13.30;63.90;;;;;;5072818;28;20167;-67
2024/03/10 11:46:43;;;;;;;18.70;12.02;;;13.40;63.80;;;;;;5069588;28;20032;-66
2024/03/10 11:49:11;;;;;;;17.40;10.90;;;13.40;62.80;;;;;;5047645;28;20036;-68
2024/03/10 11:51:38;;;;;;;12.40;7.85;;;13.30;63.00;;;;;;5074624;28;20024;-66
2024/03/10 11:54:04;;;;;;;13.10;8.35;;;13.50;63.40;;;;;;5071095;28;20390;-66
2024/03/10 11:56:32;;;;;;;13.30;8.02;;;13.60;63.30;;;;;;5074156;28;20415;-66
2024/03/10 11:58:58;;;;;;;14.65;9.15;;;13.60;63.00;;;;;;5071520;28;20035;-66
2024/03/10 12:01:26;;;;;;;14.98;9.63;;;13.60;63.10;;;;;;5070782;28;20048;-66
2024/03/10 12:03:53;;;;;;;14.48;9.40;;;13.50;63.00;;;;;;5069368;28;20070;-66
2024/03/10 12:06:21;;;;;;;15.73;9.48;;;13.40;62.80;;;;;;5072255;28;20017;-66
2024/03/10 12:08:48;;;;;;;16.48;10.50;;;13.40;63.20;;;;;;5066586;28;20024;-67
2024/03/10 12:11:15;;;;;;;15.07;8.98;;;13.40;63.20;;;;;;5066483;28;20035;-65
2024/03/10 12:13:47;;;;;;;13.95;8.40;;;13.40;63.50;;;;;;5075024;28;20031;-66
2024/03/10 12:16:13;;;;;;;15.35;9.50;;;13.40;63.50;;;;;;5070188;28;20065;-66
2024/03/10 12:18:41;;;;;;;12.73;8.38;;;13.50;63.50;;;;;;5074309;28;20117;-67
2024/03/10 12:21:14;;;;;;;15.57;10.00;;;13.70;63.60;;;;;;5076440;28;20027;-66
2024/03/10 12:23:44;;;;;;;13.75;8.82;;;13.80;63.40;;;;;;5070593;28;20021;-66
2024/03/10 12:26:11;;;;;;;17.98;10.82;;;13.90;63.00;;;;;;5069049;28;20353;-66
2024/03/10 12:28:46;;;;;;;15.80;9.82;;;13.90;62.90;;;;;;5067992;28;20349;-66
2024/03/10 12:31:14;;;;;;;17.13;11.32;;;14.00;63.00;;;;;;5072014;28;20321;-66
2024/03/10 12:33:46;;;;;;;19.23;11.80;;;14.10;61.90;;;;;;5071076;28;20036;-66
2024/03/10 12:36:12;;;;;;;17.65;11.82;;;14.00;62.10;;;;;;5076659;28;20035;-66
2024/03/10 12:38:39;;;;;;;18.02;11.13;;;14.00;62.00;;;;;;5066557;28;20028;-69
2024/03/10 12:41:09;;;;;;;19.88;11.90;;;14.00;62.60;;;;;;5072430;28;20034;-64
2024/03/10 12:43:36;;;;;;;17.20;10.55;;;14.00;62.10;;;;;;5066127;28;20501;-64
2024/03/10 12:46:02;;;;;;;19.90;12.40;;;13.90;62.50;;;;;;5070500;28;20031;-66
2024/03/10 12:48:28;;;;;;;22.13;13.48;;;13.90;62.10;;;;;;5071830;28;20016;-65
2024/03/10 12:50:56;;;;;;;19.70;12.30;;;13.80;61.90;;;;;;5071816;28;20091;-65
2024/03/10 12:53:23;;;;;;;22.63;13.85;;;13.80;62.30;;;;;;5069971;28;20090;-69
2024/03/10 12:55:50;;;;;;;19.33;12.35;;;13.80;62.40;;;;;;5067217;28;20100;-69
2024/03/10 12:58:16;;;;;;;18.88;11.95;;;13.80;62.40;;;;;;5072477;28;20054;-66
2024/03/10 13:00:42;;;;;;;20.33;12.20;;;13.80;62.30;;;;;;5068010;28;20025;-66